sensor_id;sensor_type;location;lat;lon;timestamp;temperature;humidity
42227;DHT22;27892;52.378;13.122;2022-10-16T00:01:13;18.70;75.80
42227;DHT22;27892;52.378;13.122;2022-10-16T00:03:40;18.80;75.70
42227;DHT22;27892;52.378;13.122;2022-10-16T00:06:06;18.80;76.30
42227;DHT22;27892;52.378;13.122;2022-10-16T00:08:33;18.90;76.00
42227;DHT22;27892;52.378;13.122;2022-10-16T00:11:02;19.00;76.10
42227;DHT22;27892;52.378;13.122;2022-10-16T00:13:29;19.00;76.30
42227;DHT22;27892;52.378;13.122;2022-10-16T00:15:56;19.00;76.10
42227;DHT22;27892;52.378;13.122;2022-10-16T00:18:24;19.10;76.40
42227;DHT22;27892;52.378;13.122;2022-10-16T00:20:50;19.10;76.50
42227;DHT22;27892;52.378;13.122;2022-10-16T00:23:16;19.10;76.50
42227;DHT22;27892;52.378;13.122;2022-10-16T00:25:42;19.20;76.20
42227;DHT22;27892;52.378;13.122;2022-10-16T00:28:08;19.30;76.20
42227;DHT22;27892;52.378;13.122;2022-10-16T00:30:37;19.40;76.10
42227;DHT22;27892;52.378;13.122;2022-10-16T00:33:02;19.40;75.90
42227;DHT22;27892;52.378;13.122;2022-10-16T00:35:28;19.40;75.90
42227;DHT22;27892;52.378;13.122;2022-10-16T00:37:54;19.40;75.90
42227;DHT22;27892;52.378;13.122;2022-10-16T00:40:20;19.50;75.80
42227;DHT22;27892;52.378;13.122;2022-10-16T00:42:45;19.50;75.50
42227;DHT22;27892;52.378;13.122;2022-10-16T00:45:11;19.60;75.40
42227;DHT22;27892;52.378;13.122;2022-10-16T00:47:40;19.60;75.10
42227;DHT22;27892;52.378;13.122;2022-10-16T00:52:37;19.60;75.20
42227;DHT22;27892;52.378;13.122;2022-10-16T00:55:06;19.60;75.20
42227;DHT22;27892;52.378;13.122;2022-10-16T00:57:32;19.60;75.00
42227;DHT22;27892;52.378;13.122;2022-10-16T00:59:58;19.60;75.00
42227;DHT22;27892;52.378;13.122;2022-10-16T01:02:24;19.60;75.00
42227;DHT22;27892;52.378;13.122;2022-10-16T01:04:52;19.60;75.10
42227;DHT22;27892;52.378;13.122;2022-10-16T01:07:34;19.50;75.00
42227;DHT22;27892;52.378;13.122;2022-10-16T01:13:03;19.50;75.10
42227;DHT22;27892;52.378;13.122;2022-10-16T01:15:42;19.50;75.30
42227;DHT22;27892;52.378;13.122;2022-10-16T01:18:16;19.50;75.30
42227;DHT22;27892;52.378;13.122;2022-10-16T01:20:49;19.40;75.20
42227;DHT22;27892;52.378;13.122;2022-10-16T01:28:22;19.30;75.30
42227;DHT22;27892;52.378;13.122;2022-10-16T01:30:52;19.30;75.00
42227;DHT22;27892;52.378;13.122;2022-10-16T01:33:26;19.20;74.90
42227;DHT22;27892;52.378;13.122;2022-10-16T01:35:58;19.10;75.50
42227;DHT22;27892;52.378;13.122;2022-10-16T01:38:39;19.00;75.80
42227;DHT22;27892;52.378;13.122;2022-10-16T01:41:09;19.10;76.50
42227;DHT22;27892;52.378;13.122;2022-10-16T01:43:41;19.10;76.50
42227;DHT22;27892;52.378;13.122;2022-10-16T01:46:08;19.10;76.40
42227;DHT22;27892;52.378;13.122;2022-10-16T01:48:36;19.10;76.50
42227;DHT22;27892;52.378;13.122;2022-10-16T01:51:08;19.20;76.20
42227;DHT22;27892;52.378;13.122;2022-10-16T01:53:36;19.20;76.30
42227;DHT22;27892;52.378;13.122;2022-10-16T01:56:04;19.20;76.50
42227;DHT22;27892;52.378;13.122;2022-10-16T01:58:36;19.30;76.40
42227;DHT22;27892;52.378;13.122;2022-10-16T02:01:04;19.30;76.20
42227;DHT22;27892;52.378;13.122;2022-10-16T02:03:32;19.30;77.00
42227;DHT22;27892;52.378;13.122;2022-10-16T02:05:58;19.30;76.20
42227;DHT22;27892;52.378;13.122;2022-10-16T02:08:26;19.30;76.30
42227;DHT22;27892;52.378;13.122;2022-10-16T02:10:57;19.30;76.20
42227;DHT22;27892;52.378;13.122;2022-10-16T02:13:31;19.30;76.00
42227;DHT22;27892;52.378;13.122;2022-10-16T02:16:16;19.30;76.30
42227;DHT22;27892;52.378;13.122;2022-10-16T02:19:01;19.30;76.40
42227;DHT22;27892;52.378;13.122;2022-10-16T02:21:54;19.30;76.30
42227;DHT22;27892;52.378;13.122;2022-10-16T02:27:02;19.30;76.40
42227;DHT22;27892;52.378;13.122;2022-10-16T02:29:28;19.20;76.30
42227;DHT22;27892;52.378;13.122;2022-10-16T02:32:01;19.20;75.90
42227;DHT22;27892;52.378;13.122;2022-10-16T02:34:29;19.10;76.30
42227;DHT22;27892;52.378;13.122;2022-10-16T02:36:57;19.10;76.50
42227;DHT22;27892;52.378;13.122;2022-10-16T02:39:24;19.10;76.30
42227;DHT22;27892;52.378;13.122;2022-10-16T02:41:51;19.00;76.10
42227;DHT22;27892;52.378;13.122;2022-10-16T02:44:17;19.00;76.10
42227;DHT22;27892;52.378;13.122;2022-10-16T02:46:42;19.00;76.10
42227;DHT22;27892;52.378;13.122;2022-10-16T02:49:08;18.90;76.00
42227;DHT22;27892;52.378;13.122;2022-10-16T02:51:33;18.90;76.10
42227;DHT22;27892;52.378;13.122;2022-10-16T02:53:59;18.80;76.20
42227;DHT22;27892;52.378;13.122;2022-10-16T02:56:24;18.70;76.00
42227;DHT22;27892;52.378;13.122;2022-10-16T02:58:50;18.60;76.20
42227;DHT22;27892;52.378;13.122;2022-10-16T03:01:15;18.50;76.30
42227;DHT22;27892;52.378;13.122;2022-10-16T03:03:42;18.50;76.30
42227;DHT22;27892;52.378;13.122;2022-10-16T03:06:08;18.50;76.40
42227;DHT22;27892;52.378;13.122;2022-10-16T03:08:34;18.40;76.20
42227;DHT22;27892;52.378;13.122;2022-10-16T03:10:59;18.30;76.20
42227;DHT22;27892;52.378;13.122;2022-10-16T03:13:25;18.30;76.50
42227;DHT22;27892;52.378;13.122;2022-10-16T03:15:50;18.20;76.90
42227;DHT22;27892;52.378;13.122;2022-10-16T03:18:16;18.20;77.60
42227;DHT22;27892;52.378;13.122;2022-10-16T03:20:43;18.20;77.80
42227;DHT22;27892;52.378;13.122;2022-10-16T03:23:09;18.20;77.50
42227;DHT22;27892;52.378;13.122;2022-10-16T03:25:34;18.20;77.20
42227;DHT22;27892;52.378;13.122;2022-10-16T03:28:00;18.20;76.90
42227;DHT22;27892;52.378;13.122;2022-10-16T03:30:25;18.10;76.60
42227;DHT22;27892;52.378;13.122;2022-10-16T03:32:51;18.00;77.10
42227;DHT22;27892;52.378;13.122;2022-10-16T03:35:23;18.00;77.20
42227;DHT22;27892;52.378;13.122;2022-10-16T03:37:49;18.00;77.60
42227;DHT22;27892;52.378;13.122;2022-10-16T03:40:15;18.10;77.80
42227;DHT22;27892;52.378;13.122;2022-10-16T03:42:42;18.10;77.50
42227;DHT22;27892;52.378;13.122;2022-10-16T03:45:08;18.10;77.90
42227;DHT22;27892;52.378;13.122;2022-10-16T03:47:34;18.10;78.10
42227;DHT22;27892;52.378;13.122;2022-10-16T03:50:00;18.10;78.60
42227;DHT22;27892;52.378;13.122;2022-10-16T03:52:25;18.10;78.50
42227;DHT22;27892;52.378;13.122;2022-10-16T03:54:51;18.20;78.60
42227;DHT22;27892;52.378;13.122;2022-10-16T03:57:17;18.20;78.40
42227;DHT22;27892;52.378;13.122;2022-10-16T03:59:42;18.20;78.60
42227;DHT22;27892;52.378;13.122;2022-10-16T04:02:08;18.30;78.90
42227;DHT22;27892;52.378;13.122;2022-10-16T04:04:34;18.30;78.80
42227;DHT22;27892;52.378;13.122;2022-10-16T04:06:59;18.30;79.10
42227;DHT22;27892;52.378;13.122;2022-10-16T04:09:26;18.40;78.80
42227;DHT22;27892;52.378;13.122;2022-10-16T04:11:51;18.30;78.60
42227;DHT22;27892;52.378;13.122;2022-10-16T04:14:17;18.30;78.90
42227;DHT22;27892;52.378;13.122;2022-10-16T04:16:42;18.40;79.00
42227;DHT22;27892;52.378;13.122;2022-10-16T04:19:09;18.30;78.50
42227;DHT22;27892;52.378;13.122;2022-10-16T04:21:35;18.40;78.50
42227;DHT22;27892;52.378;13.122;2022-10-16T04:24:00;18.40;78.00
42227;DHT22;27892;52.378;13.122;2022-10-16T04:26:26;18.30;77.90
42227;DHT22;27892;52.378;13.122;2022-10-16T04:28:51;18.20;77.80
42227;DHT22;27892;52.378;13.122;2022-10-16T04:31:17;18.20;78.10
42227;DHT22;27892;52.378;13.122;2022-10-16T04:33:43;18.10;78.20
42227;DHT22;27892;52.378;13.122;2022-10-16T04:36:09;18.10;78.10
42227;DHT22;27892;52.378;13.122;2022-10-16T04:38:34;18.10;77.90
42227;DHT22;27892;52.378;13.122;2022-10-16T04:41:03;18.10;77.80
42227;DHT22;27892;52.378;13.122;2022-10-16T04:43:29;18.10;77.70
42227;DHT22;27892;52.378;13.122;2022-10-16T04:45:55;18.00;77.60
42227;DHT22;27892;52.378;13.122;2022-10-16T04:48:22;17.90;77.40
42227;DHT22;27892;52.378;13.122;2022-10-16T04:50:47;17.90;77.70
42227;DHT22;27892;52.378;13.122;2022-10-16T04:53:13;17.80;77.70
42227;DHT22;27892;52.378;13.122;2022-10-16T04:55:39;17.80;77.50
42227;DHT22;27892;52.378;13.122;2022-10-16T04:58:06;17.80;77.50
42227;DHT22;27892;52.378;13.122;2022-10-16T05:00:33;17.70;77.80
42227;DHT22;27892;52.378;13.122;2022-10-16T05:02:58;17.70;78.10
42227;DHT22;27892;52.378;13.122;2022-10-16T05:05:26;17.80;78.80
42227;DHT22;27892;52.378;13.122;2022-10-16T05:07:53;17.80;78.40
42227;DHT22;27892;52.378;13.122;2022-10-16T05:10:19;17.70;78.70
42227;DHT22;27892;52.378;13.122;2022-10-16T05:12:45;17.70;79.20
42227;DHT22;27892;52.378;13.122;2022-10-16T05:15:11;17.70;79.70
42227;DHT22;27892;52.378;13.122;2022-10-16T05:17:36;17.70;79.70
42227;DHT22;27892;52.378;13.122;2022-10-16T05:20:03;17.70;79.80
42227;DHT22;27892;52.378;13.122;2022-10-16T05:22:28;17.80;80.00
42227;DHT22;27892;52.378;13.122;2022-10-16T05:24:54;17.70;79.90
42227;DHT22;27892;52.378;13.122;2022-10-16T05:27:20;17.70;80.20
42227;DHT22;27892;52.378;13.122;2022-10-16T05:29:46;17.60;80.40
42227;DHT22;27892;52.378;13.122;2022-10-16T05:32:14;17.70;81.10
42227;DHT22;27892;52.378;13.122;2022-10-16T05:34:40;17.70;81.30
42227;DHT22;27892;52.378;13.122;2022-10-16T05:37:05;17.70;80.90
42227;DHT22;27892;52.378;13.122;2022-10-16T05:39:31;17.80;80.30
42227;DHT22;27892;52.378;13.122;2022-10-16T05:41:56;17.80;80.00
42227;DHT22;27892;52.378;13.122;2022-10-16T05:44:22;17.80;79.90
42227;DHT22;27892;52.378;13.122;2022-10-16T05:46:48;17.80;79.40
42227;DHT22;27892;52.378;13.122;2022-10-16T05:49:13;17.80;79.50
42227;DHT22;27892;52.378;13.122;2022-10-16T05:51:39;17.80;79.60
42227;DHT22;27892;52.378;13.122;2022-10-16T05:54:05;17.70;79.70
42227;DHT22;27892;52.378;13.122;2022-10-16T05:56:30;17.70;80.10
42227;DHT22;27892;52.378;13.122;2022-10-16T05:58:56;17.70;80.20
42227;DHT22;27892;52.378;13.122;2022-10-16T06:01:21;17.80;81.30
42227;DHT22;27892;52.378;13.122;2022-10-16T06:03:52;17.90;80.60
42227;DHT22;27892;52.378;13.122;2022-10-16T06:06:20;17.90;80.30
42227;DHT22;27892;52.378;13.122;2022-10-16T06:08:47;18.00;80.10
42227;DHT22;27892;52.378;13.122;2022-10-16T06:11:18;18.00;80.30
42227;DHT22;27892;52.378;13.122;2022-10-16T06:13:44;18.00;80.40
42227;DHT22;27892;52.378;13.122;2022-10-16T06:16:12;18.10;80.50
42227;DHT22;27892;52.378;13.122;2022-10-16T06:18:38;18.00;81.30
42227;DHT22;27892;52.378;13.122;2022-10-16T06:21:14;18.10;80.70
42227;DHT22;27892;52.378;13.122;2022-10-16T06:23:41;18.20;80.60
42227;DHT22;27892;52.378;13.122;2022-10-16T06:26:15;18.20;80.40
42227;DHT22;27892;52.378;13.122;2022-10-16T06:28:41;18.30;80.40
42227;DHT22;27892;52.378;13.122;2022-10-16T06:31:08;18.30;80.20
42227;DHT22;27892;52.378;13.122;2022-10-16T06:33:35;18.40;80.10
42227;DHT22;27892;52.378;13.122;2022-10-16T06:36:09;18.40;79.80
42227;DHT22;27892;52.378;13.122;2022-10-16T06:38:35;18.40;79.90
42227;DHT22;27892;52.378;13.122;2022-10-16T06:41:02;18.40;80.00
42227;DHT22;27892;52.378;13.122;2022-10-16T06:43:31;18.50;79.70
42227;DHT22;27892;52.378;13.122;2022-10-16T06:45:58;18.50;79.20
42227;DHT22;27892;52.378;13.122;2022-10-16T06:48:25;18.50;79.50
42227;DHT22;27892;52.378;13.122;2022-10-16T06:51:02;18.50;79.80
42227;DHT22;27892;52.378;13.122;2022-10-16T06:53:31;18.60;79.40
42227;DHT22;27892;52.378;13.122;2022-10-16T06:55:57;18.60;79.60
42227;DHT22;27892;52.378;13.122;2022-10-16T06:58:23;18.70;79.60
42227;DHT22;27892;52.378;13.122;2022-10-16T07:00:55;18.70;79.20
42227;DHT22;27892;52.378;13.122;2022-10-16T07:03:21;18.70;79.60
42227;DHT22;27892;52.378;13.122;2022-10-16T07:05:47;18.90;79.70
42227;DHT22;27892;52.378;13.122;2022-10-16T07:08:12;19.00;79.20
42227;DHT22;27892;52.378;13.122;2022-10-16T07:10:38;19.20;78.70
42227;DHT22;27892;52.378;13.122;2022-10-16T07:13:03;19.30;78.40
42227;DHT22;27892;52.378;13.122;2022-10-16T07:15:29;19.50;78.10
42227;DHT22;27892;52.378;13.122;2022-10-16T07:17:55;19.70;78.10
42227;DHT22;27892;52.378;13.122;2022-10-16T07:20:20;19.90;77.80
42227;DHT22;27892;52.378;13.122;2022-10-16T07:22:46;20.10;77.10
42227;DHT22;27892;52.378;13.122;2022-10-16T07:25:12;20.30;76.70
42227;DHT22;27892;52.378;13.122;2022-10-16T07:27:38;20.50;75.20
42227;DHT22;27892;52.378;13.122;2022-10-16T07:30:04;20.60;74.70
42227;DHT22;27892;52.378;13.122;2022-10-16T07:32:31;20.60;74.00
42227;DHT22;27892;52.378;13.122;2022-10-16T07:34:56;20.50;74.10
42227;DHT22;27892;52.378;13.122;2022-10-16T07:37:22;20.40;73.70
42227;DHT22;27892;52.378;13.122;2022-10-16T07:39:47;20.40;73.70
42227;DHT22;27892;52.378;13.122;2022-10-16T07:42:13;20.40;74.00
42227;DHT22;27892;52.378;13.122;2022-10-16T07:44:38;20.40;74.20
42227;DHT22;27892;52.378;13.122;2022-10-16T07:47:05;20.40;74.30
42227;DHT22;27892;52.378;13.122;2022-10-16T07:49:31;20.30;74.00
42227;DHT22;27892;52.378;13.122;2022-10-16T07:51:56;20.20;74.60
42227;DHT22;27892;52.378;13.122;2022-10-16T07:54:22;20.20;75.00
42227;DHT22;27892;52.378;13.122;2022-10-16T07:56:47;20.30;75.00
42227;DHT22;27892;52.378;13.122;2022-10-16T07:59:13;20.30;74.90
42227;DHT22;27892;52.378;13.122;2022-10-16T08:01:39;20.40;74.90
42227;DHT22;27892;52.378;13.122;2022-10-16T08:04:05;20.40;74.90
42227;DHT22;27892;52.378;13.122;2022-10-16T08:06:36;20.40;74.70
42227;DHT22;27892;52.378;13.122;2022-10-16T08:09:02;20.50;75.00
42227;DHT22;27892;52.378;13.122;2022-10-16T08:11:28;20.60;75.10
42227;DHT22;27892;52.378;13.122;2022-10-16T08:13:53;20.70;75.20
42227;DHT22;27892;52.378;13.122;2022-10-16T08:16:19;20.80;74.80
42227;DHT22;27892;52.378;13.122;2022-10-16T08:18:45;21.00;74.60
42227;DHT22;27892;52.378;13.122;2022-10-16T08:21:14;21.10;73.90
42227;DHT22;27892;52.378;13.122;2022-10-16T08:23:40;21.20;73.30
42227;DHT22;27892;52.378;13.122;2022-10-16T08:26:07;21.30;73.00
42227;DHT22;27892;52.378;13.122;2022-10-16T08:28:33;21.40;73.00
42227;DHT22;27892;52.378;13.122;2022-10-16T08:31:13;21.50;72.30
42227;DHT22;27892;52.378;13.122;2022-10-16T08:33:41;21.70;73.00
42227;DHT22;27892;52.378;13.122;2022-10-16T08:36:07;21.80;71.50
42227;DHT22;27892;52.378;13.122;2022-10-16T08:38:34;21.70;70.60
42227;DHT22;27892;52.378;13.122;2022-10-16T08:41:26;21.60;70.40
42227;DHT22;27892;52.378;13.122;2022-10-16T08:44:24;21.60;70.30
42227;DHT22;27892;52.378;13.122;2022-10-16T08:46:59;21.60;70.80
42227;DHT22;27892;52.378;13.122;2022-10-16T08:49:27;21.60;70.80
42227;DHT22;27892;52.378;13.122;2022-10-16T08:51:53;21.60;70.40
42227;DHT22;27892;52.378;13.122;2022-10-16T08:57:24;21.60;71.10
42227;DHT22;27892;52.378;13.122;2022-10-16T08:59:55;21.80;70.40
42227;DHT22;27892;52.378;13.122;2022-10-16T09:02:37;21.90;69.80
42227;DHT22;27892;52.378;13.122;2022-10-16T09:08:14;22.10;69.30
42227;DHT22;27892;52.378;13.122;2022-10-16T09:10:59;22.20;69.30
42227;DHT22;27892;52.378;13.122;2022-10-16T09:13:59;22.20;68.80
42227;DHT22;27892;52.378;13.122;2022-10-16T09:16:33;22.40;69.10
42227;DHT22;27892;52.378;13.122;2022-10-16T09:19:02;22.60;68.20
42227;DHT22;27892;52.378;13.122;2022-10-16T09:21:33;22.70;67.60
42227;DHT22;27892;52.378;13.122;2022-10-16T09:24:16;22.80;67.00
42227;DHT22;27892;52.378;13.122;2022-10-16T09:26:43;23.00;66.00
42227;DHT22;27892;52.378;13.122;2022-10-16T09:29:12;23.00;65.50
42227;DHT22;27892;52.378;13.122;2022-10-16T09:31:38;23.00;65.80
42227;DHT22;27892;52.378;13.122;2022-10-16T09:34:04;23.00;65.00
42227;DHT22;27892;52.378;13.122;2022-10-16T09:36:39;23.20;66.00
42227;DHT22;27892;52.378;13.122;2022-10-16T09:39:08;23.30;64.90
42227;DHT22;27892;52.378;13.122;2022-10-16T09:41:36;23.50;64.50
42227;DHT22;27892;52.378;13.122;2022-10-16T09:44:03;23.60;63.80
42227;DHT22;27892;52.378;13.122;2022-10-16T09:46:36;23.50;63.40
42227;DHT22;27892;52.378;13.122;2022-10-16T09:49:23;23.60;62.60
42227;DHT22;27892;52.378;13.122;2022-10-16T09:51:49;23.60;61.70
42227;DHT22;27892;52.378;13.122;2022-10-16T09:54:20;23.50;60.80
42227;DHT22;27892;52.378;13.122;2022-10-16T09:56:47;23.40;61.80
42227;DHT22;27892;52.378;13.122;2022-10-16T09:59:21;23.30;60.50
42227;DHT22;27892;52.378;13.122;2022-10-16T10:01:52;23.30;61.00
42227;DHT22;27892;52.378;13.122;2022-10-16T10:04:23;23.30;60.60
42227;DHT22;27892;52.378;13.122;2022-10-16T10:06:54;23.50;61.50
42227;DHT22;27892;52.378;13.122;2022-10-16T10:12:02;23.80;59.20
42227;DHT22;27892;52.378;13.122;2022-10-16T10:19:36;24.20;57.80
42227;DHT22;27892;52.378;13.122;2022-10-16T10:22:15;24.10;58.00
42227;DHT22;27892;52.378;13.122;2022-10-16T10:24:41;24.10;57.70
42227;DHT22;27892;52.378;13.122;2022-10-16T10:27:13;24.10;58.50
42227;DHT22;27892;52.378;13.122;2022-10-16T10:29:57;24.20;58.30
42227;DHT22;27892;52.378;13.122;2022-10-16T10:33:09;24.20;57.70
42227;DHT22;27892;52.378;13.122;2022-10-16T10:46:37;24.90;56.40
42227;DHT22;27892;52.378;13.122;2022-10-16T10:57:21;25.60;54.80
42227;DHT22;27892;52.378;13.122;2022-10-16T11:02:52;25.00;53.70
42227;DHT22;27892;52.378;13.122;2022-10-16T11:08:11;25.50;53.70
42227;DHT22;27892;52.378;13.122;2022-10-16T11:10:58;26.20;53.30
42227;DHT22;27892;52.378;13.122;2022-10-16T11:13:45;26.80;52.50
42227;DHT22;27892;52.378;13.122;2022-10-16T11:16:20;27.20;52.00
42227;DHT22;27892;52.378;13.122;2022-10-16T11:21:23;27.00;48.80
42227;DHT22;27892;52.378;13.122;2022-10-16T11:23:57;26.60;47.30
42227;DHT22;27892;52.378;13.122;2022-10-16T11:26:28;26.30;48.20
42227;DHT22;27892;52.378;13.122;2022-10-16T11:28:56;26.00;49.40
42227;DHT22;27892;52.378;13.122;2022-10-16T11:31:45;26.00;49.50
42227;DHT22;27892;52.378;13.122;2022-10-16T11:36:57;25.90;49.90
42227;DHT22;27892;52.378;13.122;2022-10-16T11:39:24;26.00;49.80
42227;DHT22;27892;52.378;13.122;2022-10-16T11:42:31;26.10;49.90
42227;DHT22;27892;52.378;13.122;2022-10-16T11:45:26;26.70;50.30
42227;DHT22;27892;52.378;13.122;2022-10-16T11:50:50;27.30;46.30
42227;DHT22;27892;52.378;13.122;2022-10-16T11:55:49;26.60;47.40
42227;DHT22;27892;52.378;13.122;2022-10-16T12:01:24;26.30;47.60
42227;DHT22;27892;52.378;13.122;2022-10-16T12:04:22;26.30;47.50
42227;DHT22;27892;52.378;13.122;2022-10-16T12:07:06;26.20;46.60
42227;DHT22;27892;52.378;13.122;2022-10-16T12:09:37;26.00;47.20
42227;DHT22;27892;52.378;13.122;2022-10-16T12:12:04;25.80;48.00
42227;DHT22;27892;52.378;13.122;2022-10-16T12:20:01;26.20;47.20
42227;DHT22;27892;52.378;13.122;2022-10-16T12:22:29;26.50;47.50
42227;DHT22;27892;52.378;13.122;2022-10-16T12:24:56;26.50;47.00
42227;DHT22;27892;52.378;13.122;2022-10-16T12:27:29;26.50;47.10
42227;DHT22;27892;52.378;13.122;2022-10-16T12:30:03;26.50;46.70
42227;DHT22;27892;52.378;13.122;2022-10-16T12:32:38;26.50;46.40
42227;DHT22;27892;52.378;13.122;2022-10-16T12:35:06;26.50;46.40
42227;DHT22;27892;52.378;13.122;2022-10-16T12:37:41;26.30;46.80
42227;DHT22;27892;52.378;13.122;2022-10-16T12:42:50;25.90;47.10
42227;DHT22;27892;52.378;13.122;2022-10-16T12:45:42;25.80;47.40
42227;DHT22;27892;52.378;13.122;2022-10-16T12:48:20;25.60;47.40
42227;DHT22;27892;52.378;13.122;2022-10-16T12:50:46;25.40;47.50
42227;DHT22;27892;52.378;13.122;2022-10-16T12:53:26;25.30;47.30
42227;DHT22;27892;52.378;13.122;2022-10-16T13:02:00;25.00;47.80
42227;DHT22;27892;52.378;13.122;2022-10-16T13:05:02;25.10;47.60
42227;DHT22;27892;52.378;13.122;2022-10-16T13:07:51;25.10;47.90
42227;DHT22;27892;52.378;13.122;2022-10-16T13:10:40;25.20;48.90
42227;DHT22;27892;52.378;13.122;2022-10-16T13:13:31;25.30;49.10
42227;DHT22;27892;52.378;13.122;2022-10-16T13:22:13;25.60;49.60
42227;DHT22;27892;52.378;13.122;2022-10-16T13:25:14;25.50;49.40
42227;DHT22;27892;52.378;13.122;2022-10-16T13:27:56;25.30;49.70
42227;DHT22;27892;52.378;13.122;2022-10-16T13:30:30;25.20;50.00
42227;DHT22;27892;52.378;13.122;2022-10-16T13:33:12;25.00;49.20
42227;DHT22;27892;52.378;13.122;2022-10-16T13:35:50;24.90;49.00
42227;DHT22;27892;52.378;13.122;2022-10-16T13:38:21;24.90;50.10
42227;DHT22;27892;52.378;13.122;2022-10-16T13:41:01;25.10;50.40
42227;DHT22;27892;52.378;13.122;2022-10-16T13:43:39;25.60;49.80
42227;DHT22;27892;52.378;13.122;2022-10-16T13:46:11;26.20;48.10
42227;DHT22;27892;52.378;13.122;2022-10-16T13:48:37;26.50;46.70
42227;DHT22;27892;52.378;13.122;2022-10-16T13:51:06;26.80;46.90
42227;DHT22;27892;52.378;13.122;2022-10-16T13:53:34;27.00;46.00
42227;DHT22;27892;52.378;13.122;2022-10-16T13:56:02;27.20;45.20
42227;DHT22;27892;52.378;13.122;2022-10-16T13:58:27;27.30;44.80
42227;DHT22;27892;52.378;13.122;2022-10-16T14:00:58;27.20;43.90
42227;DHT22;27892;52.378;13.122;2022-10-16T14:03:25;27.00;43.30
42227;DHT22;27892;52.378;13.122;2022-10-16T14:05:53;26.70;44.30
42227;DHT22;27892;52.378;13.122;2022-10-16T14:08:21;26.50;44.30
42227;DHT22;27892;52.378;13.122;2022-10-16T14:10:52;26.10;44.40
42227;DHT22;27892;52.378;13.122;2022-10-16T14:13:24;25.80;44.90
42227;DHT22;27892;52.378;13.122;2022-10-16T14:15:52;25.60;45.20
42227;DHT22;27892;52.378;13.122;2022-10-16T14:18:24;25.30;45.30
42227;DHT22;27892;52.378;13.122;2022-10-16T14:20:51;25.20;45.50
42227;DHT22;27892;52.378;13.122;2022-10-16T14:23:28;25.10;46.00
42227;DHT22;27892;52.378;13.122;2022-10-16T14:26:16;25.00;46.30
42227;DHT22;27892;52.378;13.122;2022-10-16T14:28:43;24.80;46.90
42227;DHT22;27892;52.378;13.122;2022-10-16T14:31:24;24.60;46.90
42227;DHT22;27892;52.378;13.122;2022-10-16T14:33:50;24.30;47.10
42227;DHT22;27892;52.378;13.122;2022-10-16T14:36:16;24.20;47.40
42227;DHT22;27892;52.378;13.122;2022-10-16T14:39:03;24.00;47.20
42227;DHT22;27892;52.378;13.122;2022-10-16T14:41:31;23.90;47.50
42227;DHT22;27892;52.378;13.122;2022-10-16T14:44:04;23.80;47.50
42227;DHT22;27892;52.378;13.122;2022-10-16T14:46:35;23.80;47.70
42227;DHT22;27892;52.378;13.122;2022-10-16T14:51:37;23.70;47.80
42227;DHT22;27892;52.378;13.122;2022-10-16T14:54:03;23.50;47.70
42227;DHT22;27892;52.378;13.122;2022-10-16T14:56:33;23.50;47.70
42227;DHT22;27892;52.378;13.122;2022-10-16T14:59:01;23.40;47.90
42227;DHT22;27892;52.378;13.122;2022-10-16T15:01:27;23.30;47.90
42227;DHT22;27892;52.378;13.122;2022-10-16T15:03:53;23.30;47.70
42227;DHT22;27892;52.378;13.122;2022-10-16T15:06:20;23.30;48.10
42227;DHT22;27892;52.378;13.122;2022-10-16T15:08:46;23.20;47.70
42227;DHT22;27892;52.378;13.122;2022-10-16T15:11:14;23.10;47.80
42227;DHT22;27892;52.378;13.122;2022-10-16T15:13:40;23.10;48.40
42227;DHT22;27892;52.378;13.122;2022-10-16T15:16:15;23.00;48.40
42227;DHT22;27892;52.378;13.122;2022-10-16T15:18:41;22.90;48.50
42227;DHT22;27892;52.378;13.122;2022-10-16T15:21:07;22.80;48.70
42227;DHT22;27892;52.378;13.122;2022-10-16T15:23:33;22.70;49.30
42227;DHT22;27892;52.378;13.122;2022-10-16T15:25:58;22.60;49.00
42227;DHT22;27892;52.378;13.122;2022-10-16T15:28:25;22.50;49.20
42227;DHT22;27892;52.378;13.122;2022-10-16T15:30:52;22.40;49.40
42227;DHT22;27892;52.378;13.122;2022-10-16T15:33:22;22.30;50.00
42227;DHT22;27892;52.378;13.122;2022-10-16T15:35:52;22.20;50.30
42227;DHT22;27892;52.378;13.122;2022-10-16T15:38:19;22.10;50.90
42227;DHT22;27892;52.378;13.122;2022-10-16T15:40:47;21.90;51.20
42227;DHT22;27892;52.378;13.122;2022-10-16T15:43:14;21.80;51.30
42227;DHT22;27892;52.378;13.122;2022-10-16T15:45:40;21.70;51.60
42227;DHT22;27892;52.378;13.122;2022-10-16T15:48:05;21.60;52.00
42227;DHT22;27892;52.378;13.122;2022-10-16T15:50:32;21.40;52.10
42227;DHT22;27892;52.378;13.122;2022-10-16T15:52:58;21.40;52.60
42227;DHT22;27892;52.378;13.122;2022-10-16T15:55:23;21.20;52.90
42227;DHT22;27892;52.378;13.122;2022-10-16T15:57:49;21.10;53.20
42227;DHT22;27892;52.378;13.122;2022-10-16T16:00:17;21.00;53.50
42227;DHT22;27892;52.378;13.122;2022-10-16T16:02:44;20.90;53.70
42227;DHT22;27892;52.378;13.122;2022-10-16T16:05:15;20.70;54.00
42227;DHT22;27892;52.378;13.122;2022-10-16T16:07:41;20.60;54.40
42227;DHT22;27892;52.378;13.122;2022-10-16T16:10:08;20.50;54.70
42227;DHT22;27892;52.378;13.122;2022-10-16T16:12:34;20.30;54.90
42227;DHT22;27892;52.378;13.122;2022-10-16T16:15:00;20.20;55.20
42227;DHT22;27892;52.378;13.122;2022-10-16T16:17:25;20.10;55.50
42227;DHT22;27892;52.378;13.122;2022-10-16T16:19:51;20.00;55.80
42227;DHT22;27892;52.378;13.122;2022-10-16T16:22:17;19.80;56.00
42227;DHT22;27892;52.378;13.122;2022-10-16T16:24:42;19.70;56.40
42227;DHT22;27892;52.378;13.122;2022-10-16T16:27:08;19.60;56.50
42227;DHT22;27892;52.378;13.122;2022-10-16T16:29:34;19.50;56.90
42227;DHT22;27892;52.378;13.122;2022-10-16T16:32:00;19.40;57.30
42227;DHT22;27892;52.378;13.122;2022-10-16T16:34:27;19.30;57.50
42227;DHT22;27892;52.378;13.122;2022-10-16T16:36:54;19.20;57.70
42227;DHT22;27892;52.378;13.122;2022-10-16T16:39:20;19.10;58.10
42227;DHT22;27892;52.378;13.122;2022-10-16T16:41:45;19.00;58.30
42227;DHT22;27892;52.378;13.122;2022-10-16T16:44:14;18.90;58.40
42227;DHT22;27892;52.378;13.122;2022-10-16T16:46:40;18.90;58.70
42227;DHT22;27892;52.378;13.122;2022-10-16T16:49:12;18.80;58.80
42227;DHT22;27892;52.378;13.122;2022-10-16T16:51:38;18.80;59.40
42227;DHT22;27892;52.378;13.122;2022-10-16T16:54:04;18.70;59.70
42227;DHT22;27892;52.378;13.122;2022-10-16T16:56:30;18.60;60.00
42227;DHT22;27892;52.378;13.122;2022-10-16T16:58:56;18.50;60.20